This is the latest recevied weather packets stored in our database for station/object AE5TC. If no packets are shown the sender has not sent any weather packets the latest 10 day(s).
| Time | Temp. | Humidity | Pressure | Rain* | Wind** | Luminosity | Snow |
|---|---|---|---|---|---|---|---|
| 1778102245 | 28.33° C | 78% | 1014.6 hPa | 0 mm | - | 429 W/m² | - |
| 1778101942 | 27.78° C | 77% | 1014.5 hPa | 0 mm | - | 447 W/m² | - |
| 1778101633 | 27.78° C | 77% | 1014.4 hPa | 0 mm | - | 463 W/m² | - |
| 1778101331 | 27.78° C | 80% | 1014.5 hPa | 0 mm | - | 472 W/m² | - |
| 1778101028 | 27.78° C | 80% | 1014.5 hPa | 0 mm | - | 494 W/m² | - |
| 1778100728 | 27.78° C | 80% | 1014.6 hPa | 0 mm | - | 513 W/m² | - |
| 1778100425 | 27.78° C | 81% | 1014.5 hPa | 0 mm | - | 525 W/m² | - |
| 1778100122 | 28.33° C | 78% | 1014.6 hPa | 0 mm | - | 536 W/m² | - |
| 1778099821 | 27.78° C | 81% | 1014.7 hPa | 0 mm | - | 553 W/m² | - |
| 1778099517 | 28.89° C | 77% | 1014.9 hPa | 0 mm | - | 80 W/m² | - |
| 1778099215 | 28.89° C | 78% | 1014.8 hPa | 0 mm | - | 576 W/m² | - |
| 1778098911 | 28.89° C | 76% | 1015.1 hPa | 0 mm | - | 587 W/m² | - |
| 1778098608 | 27.78° C | 79% | 1015.1 hPa | 0 mm | - | 610 W/m² | - |
| 1778098304 | 28.89° C | 77% | 1015.2 hPa | 0 mm | - | 625 W/m² | - |
| 1778098001 | 28.89° C | 75% | 1015.1 hPa | 0 mm | - | 224 W/m² | - |
| 1778097698 | 27.78° C | 79% | 1015.5 hPa | 0 mm | - | 655 W/m² | - |
| 1778097395 | 28.33° C | 79% | 1015.6 hPa | 0 mm | - | 675 W/m² | - |
| 1778097091 | 28.33° C | 79% | 1015.4 hPa | 0 mm | - | 698 W/m² | - |
| 1778096789 | 28.33° C | 77% | 1015.4 hPa | 0 mm | - | 689 W/m² | - |
| 1778096485 | 28.33° C | 78% | 1015.7 hPa | 0 mm | - | 694 W/m² | - |
| 1778096183 | 28.89° C | 77% | 1015.8 hPa | 0 mm | - | 706 W/m² | - |
| 1778095880 | 28.33° C | 78% | 1015.7 hPa | 0 mm | - | 719 W/m² | - |
| 1778095576 | 27.78° C | 78% | 1015.8 hPa | 0 mm | - | 719 W/m² | - |
| 1778095272 | 28.89° C | 77% | 1015.8 hPa | 0 mm | - | 738 W/m² | - |
| 1778094969 | 27.78° C | 77% | 1015.9 hPa | 0 mm | - | 736 W/m² | - |
* Rain latest hour (hover to see other rain measurements)
** Current wind speed in m/s (hover to see current wind gust speed)